sensor_id;sensor_type;location;lat;lon;timestamp;P1;durP1;ratioP1;P2;durP2;ratioP2
10537;SDS011;5317;49.048;8.468;2022-07-29T00:01:50;3.93;;;3.30;;
10537;SDS011;5317;49.048;8.468;2022-07-29T00:04:18;3.63;;;3.20;;
10537;SDS011;5317;49.048;8.468;2022-07-29T00:06:45;3.37;;;3.07;;
10537;SDS011;5317;49.048;8.468;2022-07-29T00:09:13;3.80;;;3.50;;
10537;SDS011;5317;49.048;8.468;2022-07-29T00:11:40;4.40;;;2.93;;
10537;SDS011;5317;49.048;8.468;2022-07-29T00:14:08;3.83;;;3.13;;
10537;SDS011;5317;49.048;8.468;2022-07-29T00:16:35;3.70;;;3.40;;
10537;SDS011;5317;49.048;8.468;2022-07-29T00:19:04;3.40;;;3.10;;
10537;SDS011;5317;49.048;8.468;2022-07-29T00:21:31;3.70;;;3.00;;
10537;SDS011;5317;49.048;8.468;2022-07-29T00:23:58;3.60;;;2.90;;
10537;SDS011;5317;49.048;8.468;2022-07-29T00:26:26;4.27;;;3.27;;
10537;SDS011;5317;49.048;8.468;2022-07-29T00:28:56;4.90;;;3.00;;
10537;SDS011;5317;49.048;8.468;2022-07-29T00:31:24;4.03;;;3.40;;
10537;SDS011;5317;49.048;8.468;2022-07-29T00:33:52;3.73;;;3.00;;
10537;SDS011;5317;49.048;8.468;2022-07-29T00:36:20;3.30;;;3.00;;
10537;SDS011;5317;49.048;8.468;2022-07-29T00:38:47;3.30;;;3.00;;
10537;SDS011;5317;49.048;8.468;2022-07-29T00:41:15;3.80;;;3.47;;
10537;SDS011;5317;49.048;8.468;2022-07-29T00:43:44;3.50;;;3.20;;
10537;SDS011;5317;49.048;8.468;2022-07-29T00:46:11;3.67;;;2.93;;
10537;SDS011;5317;49.048;8.468;2022-07-29T00:48:39;3.70;;;3.20;;
10537;SDS011;5317;49.048;8.468;2022-07-29T00:51:06;4.03;;;3.57;;
10537;SDS011;5317;49.048;8.468;2022-07-29T00:53:36;3.40;;;3.10;;
10537;SDS011;5317;49.048;8.468;2022-07-29T00:56:04;7.10;;;3.47;;
10537;SDS011;5317;49.048;8.468;2022-07-29T00:58:32;3.40;;;3.10;;
10537;SDS011;5317;49.048;8.468;2022-07-29T01:00:59;3.60;;;3.30;;
10537;SDS011;5317;49.048;8.468;2022-07-29T01:03:26;4.30;;;3.30;;
10537;SDS011;5317;49.048;8.468;2022-07-29T01:05:53;3.73;;;3.03;;
10537;SDS011;5317;49.048;8.468;2022-07-29T01:08:21;3.40;;;3.10;;
10537;SDS011;5317;49.048;8.468;2022-07-29T01:10:51;3.60;;;3.30;;
10537;SDS011;5317;49.048;8.468;2022-07-29T01:13:20;3.47;;;3.10;;
10537;SDS011;5317;49.048;8.468;2022-07-29T01:15:49;4.57;;;3.50;;
10537;SDS011;5317;49.048;8.468;2022-07-29T01:18:28;3.80;;;3.50;;
10537;SDS011;5317;49.048;8.468;2022-07-29T01:21:20;3.73;;;3.43;;
10537;SDS011;5317;49.048;8.468;2022-07-29T01:24:09;3.57;;;3.10;;
10537;SDS011;5317;49.048;8.468;2022-07-29T01:26:59;3.80;;;3.40;;
10537;SDS011;5317;49.048;8.468;2022-07-29T01:29:45;4.23;;;3.20;;
10537;SDS011;5317;49.048;8.468;2022-07-29T01:32:22;3.90;;;3.53;;
10537;SDS011;5317;49.048;8.468;2022-07-29T01:34:54;5.30;;;3.07;;
10537;SDS011;5317;49.048;8.468;2022-07-29T01:37:28;3.90;;;3.27;;
10537;SDS011;5317;49.048;8.468;2022-07-29T01:40:03;4.47;;;3.40;;
10537;SDS011;5317;49.048;8.468;2022-07-29T01:42:38;3.20;;;2.80;;
10537;SDS011;5317;49.048;8.468;2022-07-29T01:45:12;3.50;;;3.00;;
10537;SDS011;5317;49.048;8.468;2022-07-29T01:47:46;3.63;;;3.13;;
10537;SDS011;5317;49.048;8.468;2022-07-29T01:50:23;3.50;;;3.20;;
10537;SDS011;5317;49.048;8.468;2022-07-29T01:52:59;3.57;;;3.10;;
10537;SDS011;5317;49.048;8.468;2022-07-29T01:55:32;3.50;;;3.20;;
10537;SDS011;5317;49.048;8.468;2022-07-29T01:58:06;3.80;;;3.43;;
10537;SDS011;5317;49.048;8.468;2022-07-29T02:00:36;3.47;;;3.17;;
10537;SDS011;5317;49.048;8.468;2022-07-29T02:03:07;3.43;;;3.13;;
10537;SDS011;5317;49.048;8.468;2022-07-29T02:05:39;3.70;;;3.33;;
10537;SDS011;5317;49.048;8.468;2022-07-29T02:08:10;5.80;;;3.20;;
10537;SDS011;5317;49.048;8.468;2022-07-29T02:10:39;4.37;;;3.43;;
10537;SDS011;5317;49.048;8.468;2022-07-29T02:13:09;3.53;;;3.23;;
10537;SDS011;5317;49.048;8.468;2022-07-29T02:15:43;3.40;;;3.10;;
10537;SDS011;5317;49.048;8.468;2022-07-29T02:18:14;3.70;;;3.40;;
10537;SDS011;5317;49.048;8.468;2022-07-29T02:20:47;3.17;;;2.83;;
10537;SDS011;5317;49.048;8.468;2022-07-29T02:23:19;4.57;;;4.10;;
10537;SDS011;5317;49.048;8.468;2022-07-29T02:25:49;5.43;;;3.50;;
10537;SDS011;5317;49.048;8.468;2022-07-29T02:28:20;3.70;;;3.40;;
10537;SDS011;5317;49.048;8.468;2022-07-29T02:30:52;3.73;;;3.43;;
10537;SDS011;5317;49.048;8.468;2022-07-29T02:33:24;4.93;;;3.00;;
10537;SDS011;5317;49.048;8.468;2022-07-29T02:35:53;3.93;;;3.50;;
10537;SDS011;5317;49.048;8.468;2022-07-29T02:38:25;3.53;;;3.20;;
10537;SDS011;5317;49.048;8.468;2022-07-29T02:41:16;3.80;;;3.47;;
10537;SDS011;5317;49.048;8.468;2022-07-29T02:43:50;3.83;;;3.20;;
10537;SDS011;5317;49.048;8.468;2022-07-29T02:46:25;3.73;;;3.40;;
10537;SDS011;5317;49.048;8.468;2022-07-29T02:48:59;4.30;;;3.50;;
10537;SDS011;5317;49.048;8.468;2022-07-29T02:51:40;4.10;;;3.70;;
10537;SDS011;5317;49.048;8.468;2022-07-29T02:54:14;3.70;;;3.30;;
10537;SDS011;5317;49.048;8.468;2022-07-29T02:56:52;3.30;;;3.07;;
10537;SDS011;5317;49.048;8.468;2022-07-29T02:59:27;3.90;;;3.50;;
10537;SDS011;5317;49.048;8.468;2022-07-29T03:02:02;3.90;;;3.50;;
10537;SDS011;5317;49.048;8.468;2022-07-29T03:04:31;4.37;;;3.70;;
10537;SDS011;5317;49.048;8.468;2022-07-29T03:07:00;3.90;;;3.23;;
10537;SDS011;5317;49.048;8.468;2022-07-29T03:09:29;3.40;;;3.10;;
10537;SDS011;5317;49.048;8.468;2022-07-29T03:11:58;3.67;;;3.33;;
10537;SDS011;5317;49.048;8.468;2022-07-29T03:14:29;3.47;;;2.93;;
10537;SDS011;5317;49.048;8.468;2022-07-29T03:16:58;3.50;;;3.20;;
10537;SDS011;5317;49.048;8.468;2022-07-29T03:19:27;3.97;;;3.50;;
10537;SDS011;5317;49.048;8.468;2022-07-29T03:21:55;4.27;;;3.50;;
10537;SDS011;5317;49.048;8.468;2022-07-29T03:24:25;4.60;;;3.60;;
10537;SDS011;5317;49.048;8.468;2022-07-29T03:26:54;3.97;;;3.57;;
10537;SDS011;5317;49.048;8.468;2022-07-29T03:29:22;4.23;;;3.83;;
10537;SDS011;5317;49.048;8.468;2022-07-29T03:31:50;4.13;;;3.40;;
10537;SDS011;5317;49.048;8.468;2022-07-29T03:34:18;3.93;;;3.47;;
10537;SDS011;5317;49.048;8.468;2022-07-29T03:36:47;4.17;;;3.77;;
10537;SDS011;5317;49.048;8.468;2022-07-29T03:39:15;6.47;;;3.97;;
10537;SDS011;5317;49.048;8.468;2022-07-29T03:41:48;4.30;;;3.33;;
10537;SDS011;5317;49.048;8.468;2022-07-29T03:44:21;3.90;;;3.50;;
10537;SDS011;5317;49.048;8.468;2022-07-29T03:46:51;3.67;;;3.37;;
10537;SDS011;5317;49.048;8.468;2022-07-29T03:49:24;3.80;;;3.43;;
10537;SDS011;5317;49.048;8.468;2022-07-29T03:51:54;4.10;;;3.70;;
10537;SDS011;5317;49.048;8.468;2022-07-29T03:54:23;3.80;;;3.50;;
10537;SDS011;5317;49.048;8.468;2022-07-29T03:56:50;3.67;;;3.33;;
10537;SDS011;5317;49.048;8.468;2022-07-29T03:59:20;4.23;;;3.83;;
10537;SDS011;5317;49.048;8.468;2022-07-29T04:01:48;3.53;;;3.23;;
10537;SDS011;5317;49.048;8.468;2022-07-29T04:04:17;4.07;;;3.67;;
10537;SDS011;5317;49.048;8.468;2022-07-29T04:06:45;4.20;;;3.63;;
10537;SDS011;5317;49.048;8.468;2022-07-29T04:09:14;4.03;;;3.43;;
10537;SDS011;5317;49.048;8.468;2022-07-29T04:11:41;5.23;;;4.33;;
10537;SDS011;5317;49.048;8.468;2022-07-29T04:14:08;4.83;;;3.70;;
10537;SDS011;5317;49.048;8.468;2022-07-29T04:16:35;3.90;;;3.60;;
10537;SDS011;5317;49.048;8.468;2022-07-29T04:19:03;4.67;;;4.00;;
10537;SDS011;5317;49.048;8.468;2022-07-29T04:21:30;4.30;;;3.87;;
10537;SDS011;5317;49.048;8.468;2022-07-29T04:23:57;5.73;;;4.33;;
10537;SDS011;5317;49.048;8.468;2022-07-29T04:26:26;4.67;;;3.70;;
10537;SDS011;5317;49.048;8.468;2022-07-29T04:28:54;3.63;;;3.33;;
10537;SDS011;5317;49.048;8.468;2022-07-29T04:31:21;4.07;;;3.67;;
10537;SDS011;5317;49.048;8.468;2022-07-29T04:33:48;4.33;;;3.70;;
10537;SDS011;5317;49.048;8.468;2022-07-29T04:36:15;4.17;;;3.80;;
10537;SDS011;5317;49.048;8.468;2022-07-29T04:38:42;4.33;;;3.93;;
10537;SDS011;5317;49.048;8.468;2022-07-29T04:41:09;4.20;;;3.90;;
10537;SDS011;5317;49.048;8.468;2022-07-29T04:43:38;4.03;;;3.73;;
10537;SDS011;5317;49.048;8.468;2022-07-29T04:46:05;4.97;;;3.90;;
10537;SDS011;5317;49.048;8.468;2022-07-29T04:48:33;5.73;;;4.17;;
10537;SDS011;5317;49.048;8.468;2022-07-29T04:51:00;4.00;;;3.60;;
10537;SDS011;5317;49.048;8.468;2022-07-29T04:53:27;7.70;;;4.67;;
10537;SDS011;5317;49.048;8.468;2022-07-29T04:55:54;5.53;;;3.80;;
10537;SDS011;5317;49.048;8.468;2022-07-29T04:58:22;4.80;;;4.30;;
10537;SDS011;5317;49.048;8.468;2022-07-29T05:00:50;4.87;;;4.43;;
10537;SDS011;5317;49.048;8.468;2022-07-29T05:03:17;5.37;;;4.00;;
10537;SDS011;5317;49.048;8.468;2022-07-29T05:05:45;6.30;;;3.70;;
10537;SDS011;5317;49.048;8.468;2022-07-29T05:08:12;4.50;;;4.10;;
10537;SDS011;5317;49.048;8.468;2022-07-29T05:10:39;4.70;;;4.30;;
10537;SDS011;5317;49.048;8.468;2022-07-29T05:13:06;4.03;;;3.73;;
10537;SDS011;5317;49.048;8.468;2022-07-29T05:15:34;4.50;;;4.10;;
10537;SDS011;5317;49.048;8.468;2022-07-29T05:18:05;4.70;;;4.27;;
10537;SDS011;5317;49.048;8.468;2022-07-29T05:20:32;4.07;;;3.63;;
10537;SDS011;5317;49.048;8.468;2022-07-29T05:23:00;6.00;;;3.77;;
10537;SDS011;5317;49.048;8.468;2022-07-29T05:25:28;4.40;;;4.00;;
10537;SDS011;5317;49.048;8.468;2022-07-29T05:27:55;5.07;;;3.87;;
10537;SDS011;5317;49.048;8.468;2022-07-29T05:30:22;4.90;;;4.23;;
10537;SDS011;5317;49.048;8.468;2022-07-29T05:32:50;4.67;;;4.27;;
10537;SDS011;5317;49.048;8.468;2022-07-29T05:35:18;5.03;;;4.03;;
10537;SDS011;5317;49.048;8.468;2022-07-29T05:37:46;5.43;;;4.60;;
10537;SDS011;5317;49.048;8.468;2022-07-29T05:40:13;5.33;;;4.13;;
10537;SDS011;5317;49.048;8.468;2022-07-29T05:42:43;4.63;;;4.20;;
10537;SDS011;5317;49.048;8.468;2022-07-29T05:45:10;5.13;;;4.33;;
10537;SDS011;5317;49.048;8.468;2022-07-29T05:47:37;5.60;;;4.23;;
10537;SDS011;5317;49.048;8.468;2022-07-29T05:50:05;5.70;;;4.40;;
10537;SDS011;5317;49.048;8.468;2022-07-29T05:52:35;8.37;;;4.77;;
10537;SDS011;5317;49.048;8.468;2022-07-29T05:55:02;5.27;;;4.70;;
10537;SDS011;5317;49.048;8.468;2022-07-29T05:57:30;5.27;;;4.20;;
10537;SDS011;5317;49.048;8.468;2022-07-29T05:59:58;4.90;;;4.50;;
10537;SDS011;5317;49.048;8.468;2022-07-29T06:02:25;5.27;;;4.77;;
10537;SDS011;5317;49.048;8.468;2022-07-29T06:04:52;5.10;;;4.63;;
10537;SDS011;5317;49.048;8.468;2022-07-29T06:07:20;5.13;;;4.53;;
10537;SDS011;5317;49.048;8.468;2022-07-29T06:09:48;5.33;;;4.67;;
10537;SDS011;5317;49.048;8.468;2022-07-29T06:12:15;7.33;;;5.33;;
10537;SDS011;5317;49.048;8.468;2022-07-29T06:14:42;5.77;;;4.87;;
10537;SDS011;5317;49.048;8.468;2022-07-29T06:17:09;6.13;;;4.70;;
10537;SDS011;5317;49.048;8.468;2022-07-29T06:19:37;5.73;;;4.90;;
10537;SDS011;5317;49.048;8.468;2022-07-29T06:22:04;5.03;;;4.23;;
10537;SDS011;5317;49.048;8.468;2022-07-29T06:24:31;6.27;;;4.17;;
10537;SDS011;5317;49.048;8.468;2022-07-29T06:27:00;4.10;;;3.80;;
10537;SDS011;5317;49.048;8.468;2022-07-29T06:29:27;5.23;;;4.30;;
10537;SDS011;5317;49.048;8.468;2022-07-29T06:31:54;4.40;;;3.87;;
10537;SDS011;5317;49.048;8.468;2022-07-29T06:34:21;5.63;;;3.97;;
10537;SDS011;5317;49.048;8.468;2022-07-29T06:36:48;4.67;;;4.00;;
10537;SDS011;5317;49.048;8.468;2022-07-29T06:39:17;4.10;;;3.70;;
10537;SDS011;5317;49.048;8.468;2022-07-29T06:41:46;4.20;;;3.80;;
10537;SDS011;5317;49.048;8.468;2022-07-29T06:44:17;4.67;;;3.90;;
10537;SDS011;5317;49.048;8.468;2022-07-29T06:46:44;4.77;;;3.57;;
10537;SDS011;5317;49.048;8.468;2022-07-29T06:49:14;5.37;;;4.63;;
10537;SDS011;5317;49.048;8.468;2022-07-29T06:51:41;5.80;;;4.20;;
10537;SDS011;5317;49.048;8.468;2022-07-29T06:54:08;5.07;;;4.03;;
10537;SDS011;5317;49.048;8.468;2022-07-29T06:56:36;6.67;;;4.13;;
10537;SDS011;5317;49.048;8.468;2022-07-29T06:59:06;8.90;;;5.00;;
10537;SDS011;5317;49.048;8.468;2022-07-29T07:01:37;4.90;;;4.40;;
10537;SDS011;5317;49.048;8.468;2022-07-29T07:04:06;5.07;;;4.37;;
10537;SDS011;5317;49.048;8.468;2022-07-29T07:06:36;7.47;;;4.27;;
10537;SDS011;5317;49.048;8.468;2022-07-29T07:09:03;6.23;;;4.30;;
10537;SDS011;5317;49.048;8.468;2022-07-29T07:11:30;5.57;;;4.30;;
10537;SDS011;5317;49.048;8.468;2022-07-29T07:13:58;6.73;;;4.43;;
10537;SDS011;5317;49.048;8.468;2022-07-29T07:16:25;4.80;;;4.40;;
10537;SDS011;5317;49.048;8.468;2022-07-29T07:18:54;4.97;;;4.17;;
10537;SDS011;5317;49.048;8.468;2022-07-29T07:21:21;5.80;;;4.20;;
10537;SDS011;5317;49.048;8.468;2022-07-29T07:23:48;4.67;;;4.27;;
10537;SDS011;5317;49.048;8.468;2022-07-29T07:26:16;4.77;;;3.83;;
10537;SDS011;5317;49.048;8.468;2022-07-29T07:28:43;4.80;;;4.27;;
10537;SDS011;5317;49.048;8.468;2022-07-29T07:31:10;5.47;;;4.27;;
10537;SDS011;5317;49.048;8.468;2022-07-29T07:33:38;4.80;;;4.00;;
10537;SDS011;5317;49.048;8.468;2022-07-29T07:36:06;4.23;;;3.83;;
10537;SDS011;5317;49.048;8.468;2022-07-29T07:38:33;7.40;;;4.20;;
10537;SDS011;5317;49.048;8.468;2022-07-29T07:41:01;4.27;;;3.80;;
10537;SDS011;5317;49.048;8.468;2022-07-29T07:43:29;7.47;;;3.90;;
10537;SDS011;5317;49.048;8.468;2022-07-29T07:45:56;7.03;;;3.80;;
10537;SDS011;5317;49.048;8.468;2022-07-29T07:48:24;4.70;;;3.77;;
10537;SDS011;5317;49.048;8.468;2022-07-29T07:50:51;5.73;;;4.10;;
10537;SDS011;5317;49.048;8.468;2022-07-29T07:53:20;6.17;;;4.07;;
10537;SDS011;5317;49.048;8.468;2022-07-29T07:55:48;4.00;;;3.27;;
10537;SDS011;5317;49.048;8.468;2022-07-29T07:58:15;4.70;;;3.73;;
10537;SDS011;5317;49.048;8.468;2022-07-29T08:00:43;4.90;;;3.40;;
10537;SDS011;5317;49.048;8.468;2022-07-29T08:03:10;5.03;;;3.50;;
10537;SDS011;5317;49.048;8.468;2022-07-29T08:05:38;5.00;;;3.80;;
10537;SDS011;5317;49.048;8.468;2022-07-29T08:08:08;5.17;;;3.27;;
10537;SDS011;5317;49.048;8.468;2022-07-29T08:10:37;3.87;;;3.40;;
10537;SDS011;5317;49.048;8.468;2022-07-29T08:13:22;4.80;;;3.60;;
10537;SDS011;5317;49.048;8.468;2022-07-29T08:15:53;6.43;;;3.70;;
10537;SDS011;5317;49.048;8.468;2022-07-29T08:18:25;4.43;;;3.30;;
10537;SDS011;5317;49.048;8.468;2022-07-29T08:20:53;4.20;;;3.47;;
10537;SDS011;5317;49.048;8.468;2022-07-29T08:23:21;4.10;;;2.97;;
10537;SDS011;5317;49.048;8.468;2022-07-29T08:25:50;3.77;;;3.43;;
10537;SDS011;5317;49.048;8.468;2022-07-29T08:28:18;8.90;;;3.60;;
10537;SDS011;5317;49.048;8.468;2022-07-29T08:30:45;3.87;;;3.07;;
10537;SDS011;5317;49.048;8.468;2022-07-29T08:33:12;3.37;;;3.13;;
10537;SDS011;5317;49.048;8.468;2022-07-29T08:35:40;3.90;;;3.30;;
10537;SDS011;5317;49.048;8.468;2022-07-29T08:38:07;4.20;;;3.30;;
10537;SDS011;5317;49.048;8.468;2022-07-29T08:40:35;3.50;;;3.20;;
10537;SDS011;5317;49.048;8.468;2022-07-29T08:43:07;3.83;;;3.43;;
10537;SDS011;5317;49.048;8.468;2022-07-29T08:45:40;4.03;;;3.40;;
10537;SDS011;5317;49.048;8.468;2022-07-29T08:48:11;5.27;;;3.00;;
10537;SDS011;5317;49.048;8.468;2022-07-29T08:50:39;3.57;;;2.93;;
10537;SDS011;5317;49.048;8.468;2022-07-29T08:53:10;3.03;;;2.73;;
10537;SDS011;5317;49.048;8.468;2022-07-29T08:55:43;3.77;;;2.90;;
10537;SDS011;5317;49.048;8.468;2022-07-29T08:58:17;3.30;;;2.53;;
10537;SDS011;5317;49.048;8.468;2022-07-29T09:00:50;4.20;;;2.70;;
10537;SDS011;5317;49.048;8.468;2022-07-29T09:03:19;3.07;;;2.67;;
10537;SDS011;5317;49.048;8.468;2022-07-29T09:05:49;4.27;;;2.67;;
10537;SDS011;5317;49.048;8.468;2022-07-29T09:08:19;2.90;;;2.60;;
10537;SDS011;5317;49.048;8.468;2022-07-29T09:10:47;3.40;;;2.70;;
10537;SDS011;5317;49.048;8.468;2022-07-29T09:13:17;3.30;;;3.00;;
10537;SDS011;5317;49.048;8.468;2022-07-29T09:15:47;3.00;;;2.60;;
10537;SDS011;5317;49.048;8.468;2022-07-29T09:18:31;4.47;;;2.57;;
10537;SDS011;5317;49.048;8.468;2022-07-29T09:21:00;3.07;;;2.83;;
10537;SDS011;5317;49.048;8.468;2022-07-29T09:23:59;4.30;;;2.80;;
10537;SDS011;5317;49.048;8.468;2022-07-29T09:26:29;3.63;;;2.60;;
10537;SDS011;5317;49.048;8.468;2022-07-29T09:28:59;4.03;;;2.77;;
10537;SDS011;5317;49.048;8.468;2022-07-29T09:31:36;5.07;;;3.20;;
10537;SDS011;5317;49.048;8.468;2022-07-29T09:34:06;5.30;;;2.70;;
10537;SDS011;5317;49.048;8.468;2022-07-29T09:36:40;3.93;;;2.70;;
10537;SDS011;5317;49.048;8.468;2022-07-29T09:39:09;3.00;;;2.80;;
10537;SDS011;5317;49.048;8.468;2022-07-29T09:41:44;2.90;;;2.70;;
10537;SDS011;5317;49.048;8.468;2022-07-29T09:44:15;3.83;;;2.67;;
10537;SDS011;5317;49.048;8.468;2022-07-29T09:46:58;5.00;;;2.70;;
10537;SDS011;5317;49.048;8.468;2022-07-29T09:49:31;3.67;;;2.80;;
10537;SDS011;5317;49.048;8.468;2022-07-29T09:52:03;3.33;;;3.03;;
10537;SDS011;5317;49.048;8.468;2022-07-29T09:54:34;3.40;;;2.37;;
10537;SDS011;5317;49.048;8.468;2022-07-29T09:57:03;3.10;;;2.43;;
10537;SDS011;5317;49.048;8.468;2022-07-29T09:59:36;3.43;;;2.33;;
10537;SDS011;5317;49.048;8.468;2022-07-29T10:02:10;3.37;;;2.50;;
10537;SDS011;5317;49.048;8.468;2022-07-29T10:04:39;5.77;;;3.20;;
10537;SDS011;5317;49.048;8.468;2022-07-29T10:07:07;4.30;;;2.83;;
10537;SDS011;5317;49.048;8.468;2022-07-29T10:09:35;6.80;;;3.07;;
10537;SDS011;5317;49.048;8.468;2022-07-29T10:12:04;3.30;;;2.53;;
10537;SDS011;5317;49.048;8.468;2022-07-29T10:14:41;4.83;;;2.90;;
10537;SDS011;5317;49.048;8.468;2022-07-29T10:17:09;4.07;;;2.93;;
10537;SDS011;5317;49.048;8.468;2022-07-29T10:19:37;3.47;;;2.73;;
10537;SDS011;5317;49.048;8.468;2022-07-29T10:22:08;3.57;;;2.93;;
10537;SDS011;5317;49.048;8.468;2022-07-29T10:24:37;4.63;;;2.77;;
10537;SDS011;5317;49.048;8.468;2022-07-29T10:27:06;5.43;;;2.97;;
10537;SDS011;5317;49.048;8.468;2022-07-29T10:29:35;3.03;;;2.77;;
10537;SDS011;5317;49.048;8.468;2022-07-29T10:32:25;2.73;;;2.53;;
10537;SDS011;5317;49.048;8.468;2022-07-29T10:35:40;2.43;;;2.20;;
10537;SDS011;5317;49.048;8.468;2022-07-29T10:38:29;4.20;;;3.00;;
10537;SDS011;5317;49.048;8.468;2022-07-29T10:41:33;3.57;;;2.50;;
10537;SDS011;5317;49.048;8.468;2022-07-29T10:44:26;3.27;;;2.70;;
10537;SDS011;5317;49.048;8.468;2022-07-29T10:46:54;3.07;;;2.30;;
10537;SDS011;5317;49.048;8.468;2022-07-29T10:49:25;3.67;;;2.57;;
10537;SDS011;5317;49.048;8.468;2022-07-29T10:51:55;2.53;;;2.17;;
10537;SDS011;5317;49.048;8.468;2022-07-29T10:57:25;3.57;;;2.63;;
10537;SDS011;5317;49.048;8.468;2022-07-29T11:02:58;3.50;;;2.70;;
10537;SDS011;5317;49.048;8.468;2022-07-29T11:05:27;4.17;;;2.73;;
10537;SDS011;5317;49.048;8.468;2022-07-29T11:14:06;4.23;;;3.13;;
10537;SDS011;5317;49.048;8.468;2022-07-29T11:19:29;2.70;;;2.50;;
10537;SDS011;5317;49.048;8.468;2022-07-29T11:21:58;9.13;;;2.90;;
10537;SDS011;5317;49.048;8.468;2022-07-29T11:24:26;5.20;;;2.90;;
10537;SDS011;5317;49.048;8.468;2022-07-29T11:27:11;2.83;;;2.63;;
10537;SDS011;5317;49.048;8.468;2022-07-29T11:29:48;3.20;;;2.90;;
10537;SDS011;5317;49.048;8.468;2022-07-29T11:32:19;3.80;;;2.63;;
10537;SDS011;5317;49.048;8.468;2022-07-29T11:34:48;4.20;;;2.70;;
10537;SDS011;5317;49.048;8.468;2022-07-29T11:37:37;4.43;;;3.00;;
10537;SDS011;5317;49.048;8.468;2022-07-29T11:40:08;3.73;;;2.80;;
10537;SDS011;5317;49.048;8.468;2022-07-29T11:42:47;3.03;;;2.70;;
10537;SDS011;5317;49.048;8.468;2022-07-29T11:45:17;3.50;;;3.10;;
10537;SDS011;5317;49.048;8.468;2022-07-29T11:47:54;3.37;;;3.03;;
10537;SDS011;5317;49.048;8.468;2022-07-29T11:50:28;3.20;;;2.80;;
10537;SDS011;5317;49.048;8.468;2022-07-29T11:53:00;3.50;;;2.97;;
10537;SDS011;5317;49.048;8.468;2022-07-29T11:55:36;2.80;;;2.50;;
10537;SDS011;5317;49.048;8.468;2022-07-29T11:58:05;2.93;;;2.63;;
10537;SDS011;5317;49.048;8.468;2022-07-29T12:00:35;3.17;;;2.50;;
10537;SDS011;5317;49.048;8.468;2022-07-29T12:03:05;3.93;;;2.60;;
10537;SDS011;5317;49.048;8.468;2022-07-29T12:05:35;3.17;;;2.83;;
10537;SDS011;5317;49.048;8.468;2022-07-29T12:08:07;2.80;;;2.60;;
10537;SDS011;5317;49.048;8.468;2022-07-29T12:10:38;6.20;;;3.43;;
10537;SDS011;5317;49.048;8.468;2022-07-29T12:13:07;3.63;;;3.00;;
10537;SDS011;5317;49.048;8.468;2022-07-29T12:15:36;2.83;;;2.63;;
10537;SDS011;5317;49.048;8.468;2022-07-29T12:18:12;3.50;;;2.83;;
10537;SDS011;5317;49.048;8.468;2022-07-29T12:20:42;4.30;;;2.70;;
10537;SDS011;5317;49.048;8.468;2022-07-29T12:23:13;3.33;;;2.87;;
10537;SDS011;5317;49.048;8.468;2022-07-29T12:25:43;3.60;;;2.63;;
10537;SDS011;5317;49.048;8.468;2022-07-29T12:28:12;3.00;;;2.70;;
10537;SDS011;5317;49.048;8.468;2022-07-29T12:30:44;3.10;;;2.90;;
10537;SDS011;5317;49.048;8.468;2022-07-29T12:33:18;3.20;;;2.90;;
10537;SDS011;5317;49.048;8.468;2022-07-29T12:35:49;3.33;;;2.50;;
10537;SDS011;5317;49.048;8.468;2022-07-29T12:38:21;2.60;;;2.40;;
10537;SDS011;5317;49.048;8.468;2022-07-29T12:40:49;3.30;;;2.50;;
10537;SDS011;5317;49.048;8.468;2022-07-29T12:43:19;2.53;;;2.33;;
10537;SDS011;5317;49.048;8.468;2022-07-29T12:45:49;2.67;;;2.20;;
10537;SDS011;5317;49.048;8.468;2022-07-29T12:48:31;2.67;;;2.47;;
10537;SDS011;5317;49.048;8.468;2022-07-29T12:51:01;2.60;;;2.40;;
10537;SDS011;5317;49.048;8.468;2022-07-29T12:53:32;2.93;;;2.20;;
10537;SDS011;5317;49.048;8.468;2022-07-29T12:56:02;3.53;;;2.43;;
10537;SDS011;5317;49.048;8.468;2022-07-29T12:58:33;3.50;;;2.70;;
10537;SDS011;5317;49.048;8.468;2022-07-29T13:01:06;2.50;;;2.30;;
10537;SDS011;5317;49.048;8.468;2022-07-29T13:03:44;3.80;;;2.40;;
10537;SDS011;5317;49.048;8.468;2022-07-29T13:06:27;4.40;;;2.93;;
10537;SDS011;5317;49.048;8.468;2022-07-29T13:09:06;2.00;;;1.80;;
10537;SDS011;5317;49.048;8.468;2022-07-29T13:11:37;2.37;;;2.07;;
10537;SDS011;5317;49.048;8.468;2022-07-29T13:14:07;2.73;;;2.40;;
10537;SDS011;5317;49.048;8.468;2022-07-29T13:16:36;2.67;;;1.90;;
10537;SDS011;5317;49.048;8.468;2022-07-29T13:19:32;2.37;;;1.97;;
10537;SDS011;5317;49.048;8.468;2022-07-29T13:22:03;2.00;;;1.80;;
10537;SDS011;5317;49.048;8.468;2022-07-29T13:24:32;2.77;;;2.20;;
10537;SDS011;5317;49.048;8.468;2022-07-29T13:27:00;2.57;;;1.80;;
10537;SDS011;5317;49.048;8.468;2022-07-29T13:29:27;2.10;;;1.90;;
10537;SDS011;5317;49.048;8.468;2022-07-29T13:31:55;4.10;;;2.10;;
10537;SDS011;5317;49.048;8.468;2022-07-29T13:34:22;5.33;;;2.13;;
10537;SDS011;5317;49.048;8.468;2022-07-29T13:36:50;3.20;;;2.10;;
10537;SDS011;5317;49.048;8.468;2022-07-29T13:39:17;5.40;;;1.83;;
10537;SDS011;5317;49.048;8.468;2022-07-29T13:41:45;2.03;;;1.83;;
10537;SDS011;5317;49.048;8.468;2022-07-29T13:44:13;3.10;;;2.00;;
10537;SDS011;5317;49.048;8.468;2022-07-29T13:46:40;4.17;;;2.20;;
10537;SDS011;5317;49.048;8.468;2022-07-29T13:49:08;3.27;;;2.03;;
10537;SDS011;5317;49.048;8.468;2022-07-29T13:51:36;4.27;;;1.80;;
10537;SDS011;5317;49.048;8.468;2022-07-29T13:54:04;3.67;;;1.80;;
10537;SDS011;5317;49.048;8.468;2022-07-29T13:56:34;1.70;;;1.60;;
10537;SDS011;5317;49.048;8.468;2022-07-29T13:59:02;2.23;;;2.00;;
10537;SDS011;5317;49.048;8.468;2022-07-29T14:01:29;1.87;;;1.77;;
10537;SDS011;5317;49.048;8.468;2022-07-29T14:03:57;2.07;;;1.87;;
10537;SDS011;5317;49.048;8.468;2022-07-29T14:06:24;2.20;;;1.73;;
10537;SDS011;5317;49.048;8.468;2022-07-29T14:08:51;3.63;;;1.80;;
10537;SDS011;5317;49.048;8.468;2022-07-29T14:11:19;2.10;;;1.87;;
10537;SDS011;5317;49.048;8.468;2022-07-29T14:13:46;2.50;;;1.87;;
10537;SDS011;5317;49.048;8.468;2022-07-29T14:16:16;2.17;;;1.80;;
10537;SDS011;5317;49.048;8.468;2022-07-29T14:18:44;3.37;;;1.80;;
10537;SDS011;5317;49.048;8.468;2022-07-29T14:21:11;2.93;;;1.90;;
10537;SDS011;5317;49.048;8.468;2022-07-29T14:23:39;1.83;;;1.70;;
10537;SDS011;5317;49.048;8.468;2022-07-29T14:26:07;1.93;;;1.70;;
10537;SDS011;5317;49.048;8.468;2022-07-29T14:28:34;2.67;;;1.90;;
10537;SDS011;5317;49.048;8.468;2022-07-29T14:31:01;2.00;;;1.80;;
10537;SDS011;5317;49.048;8.468;2022-07-29T14:33:30;2.10;;;1.80;;
10537;SDS011;5317;49.048;8.468;2022-07-29T14:35:57;1.50;;;1.40;;
10537;SDS011;5317;49.048;8.468;2022-07-29T14:38:24;2.87;;;1.70;;
10537;SDS011;5317;49.048;8.468;2022-07-29T14:40:52;1.63;;;1.53;;
10537;SDS011;5317;49.048;8.468;2022-07-29T14:43:19;1.80;;;1.67;;
10537;SDS011;5317;49.048;8.468;2022-07-29T14:45:47;4.30;;;1.73;;
10537;SDS011;5317;49.048;8.468;2022-07-29T14:48:14;1.63;;;1.53;;
10537;SDS011;5317;49.048;8.468;2022-07-29T14:50:42;5.47;;;1.80;;
10537;SDS011;5317;49.048;8.468;2022-07-29T14:53:09;4.67;;;2.03;;
10537;SDS011;5317;49.048;8.468;2022-07-29T14:55:37;1.60;;;1.30;;
10537;SDS011;5317;49.048;8.468;2022-07-29T14:58:04;2.27;;;1.63;;
10537;SDS011;5317;49.048;8.468;2022-07-29T15:00:31;2.07;;;1.87;;
10537;SDS011;5317;49.048;8.468;2022-07-29T15:02:58;3.37;;;1.70;;
10537;SDS011;5317;49.048;8.468;2022-07-29T15:05:26;3.77;;;1.90;;
10537;SDS011;5317;49.048;8.468;2022-07-29T15:07:56;1.93;;;1.70;;
10537;SDS011;5317;49.048;8.468;2022-07-29T15:10:24;1.67;;;1.57;;
10537;SDS011;5317;49.048;8.468;2022-07-29T15:12:52;2.70;;;2.00;;
10537;SDS011;5317;49.048;8.468;2022-07-29T15:15:19;2.00;;;1.60;;
10537;SDS011;5317;49.048;8.468;2022-07-29T15:17:47;1.93;;;1.73;;
10537;SDS011;5317;49.048;8.468;2022-07-29T15:20:14;2.10;;;1.70;;
10537;SDS011;5317;49.048;8.468;2022-07-29T15:22:41;3.83;;;1.90;;
10537;SDS011;5317;49.048;8.468;2022-07-29T15:25:10;2.00;;;1.83;;
10537;SDS011;5317;49.048;8.468;2022-07-29T15:27:37;8.80;;;1.90;;
10537;SDS011;5317;49.048;8.468;2022-07-29T15:30:05;6.30;;;1.87;;
10537;SDS011;5317;49.048;8.468;2022-07-29T15:32:34;2.40;;;1.40;;
10537;SDS011;5317;49.048;8.468;2022-07-29T15:35:01;1.70;;;1.40;;